createdAt,value
2019-03-26T00:01:14.928Z,8.60
2019-03-26T00:03:44.106Z,8.70
2019-03-26T00:06:13.579Z,8.60
2019-03-26T00:08:42.759Z,8.80
2019-03-26T00:11:11.912Z,8.40
2019-03-26T00:13:40.968Z,8.50
2019-03-26T00:16:10.193Z,8.50
2019-03-26T00:18:39.211Z,8.40
2019-03-26T00:21:08.397Z,8.40
2019-03-26T00:23:37.573Z,8.40
2019-03-26T00:26:06.800Z,8.50
2019-03-26T00:28:36.205Z,8.40
2019-03-26T00:31:05.580Z,8.40
2019-03-26T00:33:36.536Z,8.60
2019-03-26T00:36:05.760Z,8.80
2019-03-26T00:38:35.013Z,8.80
2019-03-26T00:41:04.212Z,8.70
2019-03-26T00:43:33.456Z,8.60
2019-03-26T00:46:02.745Z,8.40
2019-03-26T00:48:31.849Z,8.40
2019-03-26T00:51:01.017Z,8.50
2019-03-26T00:53:30.129Z,8.60
2019-03-26T00:55:59.269Z,8.20
2019-03-26T00:58:28.512Z,8.30
2019-03-26T01:00:57.919Z,8.50
2019-03-26T01:03:27.061Z,8.70
2019-03-26T01:05:56.417Z,8.50
2019-03-26T01:08:25.589Z,8.70
2019-03-26T01:10:54.620Z,8.90
2019-03-26T01:13:23.709Z,8.90
2019-03-26T01:15:52.947Z,8.80
2019-03-26T01:18:22.046Z,8.80
2019-03-26T01:20:51.304Z,8.70
2019-03-26T01:23:20.518Z,8.70
2019-03-26T01:25:49.852Z,8.40
2019-03-26T01:28:19.050Z,8.60
2019-03-26T01:30:48.100Z,8.80
2019-03-26T01:33:17.256Z,8.90
2019-03-26T01:35:46.514Z,8.90
2019-03-26T01:38:15.654Z,9.00
2019-03-26T01:40:44.851Z,8.80
2019-03-26T01:43:14.033Z,9.00
2019-03-26T01:45:43.279Z,9.00
2019-03-26T01:48:12.540Z,8.90
2019-03-26T01:50:41.774Z,9.00
2019-03-26T01:53:10.993Z,8.90
2019-03-26T01:55:40.368Z,8.90
2019-03-26T01:58:09.503Z,8.90
2019-03-26T02:00:38.709Z,8.80
2019-03-26T02:03:09.095Z,8.90
2019-03-26T02:05:38.269Z,8.90
2019-03-26T02:08:07.543Z,8.80
2019-03-26T02:10:36.702Z,8.80
2019-03-26T02:13:06.066Z,8.70
2019-03-26T02:15:35.427Z,8.80
2019-03-26T02:18:05.068Z,8.70
2019-03-26T02:20:34.423Z,8.80
2019-03-26T02:23:03.702Z,8.90
2019-03-26T02:25:32.882Z,8.70
2019-03-26T02:28:02.088Z,8.20
2019-03-26T02:30:31.281Z,7.80
2019-03-26T02:33:00.586Z,7.70
2019-03-26T02:35:29.792Z,7.80
2019-03-26T02:37:58.889Z,8.30
2019-03-26T02:40:28.053Z,8.30
2019-03-26T02:42:57.379Z,8.30
2019-03-26T02:45:26.685Z,8.50
2019-03-26T02:47:55.959Z,8.30
2019-03-26T02:50:25.216Z,8.50
2019-03-26T02:52:54.810Z,8.60
2019-03-26T02:55:23.961Z,8.60
2019-03-26T02:57:53.155Z,8.50
2019-03-26T03:00:22.680Z,8.80
2019-03-26T03:02:51.896Z,8.90
2019-03-26T03:05:34.419Z,8.70
2019-03-26T03:07:52.226Z,8.40
2019-03-26T03:10:21.448Z,8.60
2019-03-26T03:12:50.561Z,8.30
2019-03-26T03:15:20.888Z,8.30
2019-03-26T03:17:50.129Z,8.40
2019-03-26T03:20:19.324Z,8.70
2019-03-26T03:22:48.547Z,8.40
2019-03-26T03:25:17.756Z,8.60
2019-03-26T03:27:46.917Z,8.20
2019-03-26T03:30:16.408Z,8.20
2019-03-26T03:32:45.618Z,8.20
2019-03-26T03:35:14.994Z,8.30
2019-03-26T03:37:44.235Z,8.30
2019-03-26T03:40:13.524Z,8.10
2019-03-26T03:42:42.688Z,8.10
2019-03-26T03:45:12.246Z,8.40
2019-03-26T03:47:42.220Z,8.10
2019-03-26T03:50:11.759Z,8.20
2019-03-26T03:52:41.727Z,8.30
2019-03-26T03:55:11.605Z,8.40
2019-03-26T03:57:41.395Z,8.50
2019-03-26T04:00:21.896Z,8.60
2019-03-26T04:02:51.049Z,8.50
2019-03-26T04:05:20.210Z,8.50
2019-03-26T04:07:50.455Z,8.60
2019-03-26T04:10:19.527Z,8.30
2019-03-26T04:12:48.694Z,8.40
2019-03-26T04:15:25.799Z,8.40
2019-03-26T04:17:55.045Z,8.40
2019-03-26T04:20:24.377Z,8.40
2019-03-26T04:22:56.249Z,8.50
2019-03-26T04:25:25.632Z,8.30
2019-03-26T04:27:55.225Z,8.40
2019-03-26T04:30:34.482Z,8.70
2019-03-26T04:33:03.915Z,8.70
2019-03-26T04:35:33.328Z,8.60
2019-03-26T04:38:02.658Z,8.40
2019-03-26T04:40:31.946Z,8.90
2019-03-26T04:43:01.116Z,8.60
2019-03-26T04:45:30.403Z,8.80
2019-03-26T04:47:59.398Z,8.60
2019-03-26T04:50:28.917Z,8.50
2019-03-26T04:52:58.318Z,8.40
2019-03-26T04:55:27.649Z,8.70
2019-03-26T04:57:57.324Z,8.50
2019-03-26T05:00:30.272Z,8.30
2019-03-26T05:02:59.597Z,8.40
2019-03-26T05:05:30.876Z,8.30
2019-03-26T05:08:00.044Z,8.50
2019-03-26T05:10:29.435Z,8.50
2019-03-26T05:12:59.087Z,8.50
2019-03-26T05:15:28.199Z,8.50
2019-03-26T05:17:57.496Z,8.80
2019-03-26T05:20:26.557Z,8.60
2019-03-26T05:22:55.812Z,8.50
2019-03-26T05:25:24.985Z,8.70
2019-03-26T05:27:54.178Z,8.60
2019-03-26T05:30:23.779Z,8.80
2019-03-26T05:33:04.918Z,8.70
2019-03-26T05:35:35.160Z,8.20
2019-03-26T05:38:04.566Z,8.40
2019-03-26T05:40:33.870Z,8.60
2019-03-26T05:43:03.078Z,8.60
2019-03-26T05:45:32.127Z,8.70
2019-03-26T05:48:01.384Z,8.80
2019-03-26T05:50:30.613Z,8.90
2019-03-26T05:52:59.925Z,8.70
2019-03-26T05:55:30.019Z,8.70
2019-03-26T05:57:59.361Z,8.60
2019-03-26T06:00:28.612Z,8.70
2019-03-26T06:02:57.907Z,8.90
2019-03-26T06:05:27.189Z,9.00
2019-03-26T06:07:56.398Z,8.90
2019-03-26T06:10:25.726Z,9.10
2019-03-26T06:12:54.910Z,9.20
2019-03-26T06:15:24.206Z,9.00
2019-03-26T06:17:57.660Z,9.30
2019-03-26T06:20:27.023Z,9.10
2019-03-26T06:22:56.346Z,9.60
2019-03-26T06:25:25.346Z,9.70
2019-03-26T06:27:54.562Z,9.50
2019-03-26T06:30:23.855Z,9.70
2019-03-26T06:32:52.992Z,9.70
2019-03-26T06:35:22.144Z,9.60
2019-03-26T06:37:51.512Z,9.80
2019-03-26T06:40:20.737Z,10.00
2019-03-26T06:42:50.313Z,10.00
2019-03-26T06:45:24.048Z,10.10
2019-03-26T06:47:53.168Z,9.90
2019-03-26T06:50:22.481Z,10.30
2019-03-26T06:52:51.581Z,10.20
2019-03-26T06:55:20.811Z,10.50
2019-03-26T06:57:50.155Z,10.40
2019-03-26T07:00:29.824Z,10.70
2019-03-26T07:03:00.722Z,10.80
2019-03-26T07:05:29.959Z,10.50
2019-03-26T07:07:59.168Z,10.60
2019-03-26T07:10:28.571Z,10.80
2019-03-26T07:12:58.576Z,10.80
2019-03-26T07:15:27.792Z,10.90
2019-03-26T07:17:58.260Z,10.80
2019-03-26T07:20:27.442Z,10.80
2019-03-26T07:22:56.957Z,11.00
2019-03-26T07:25:26.122Z,10.90
2019-03-26T07:27:55.364Z,11.00
2019-03-26T07:30:43.875Z,10.80
2019-03-26T07:33:13.213Z,11.00
2019-03-26T07:35:42.457Z,11.20
2019-03-26T07:38:11.821Z,11.00
2019-03-26T07:40:41.039Z,10.90
2019-03-26T07:43:10.368Z,10.90
2019-03-26T07:45:39.622Z,11.00
2019-03-26T07:48:08.834Z,10.80
2019-03-26T07:50:37.949Z,11.00
2019-03-26T07:53:07.049Z,10.90
2019-03-26T07:55:37.293Z,11.00
2019-03-26T07:58:06.715Z,11.30
2019-03-26T08:00:37.154Z,11.00
2019-03-26T08:03:06.980Z,11.20
2019-03-26T08:05:36.367Z,11.40
2019-03-26T08:08:05.572Z,11.20
2019-03-26T08:10:34.948Z,11.40
2019-03-26T08:13:04.279Z,11.30
2019-03-26T08:15:33.830Z,11.50
2019-03-26T08:18:03.176Z,11.50
2019-03-26T08:20:32.282Z,11.60
2019-03-26T08:23:01.581Z,12.30
2019-03-26T08:25:33.647Z,12.60
2019-03-26T08:28:04.782Z,12.60
2019-03-26T08:30:32.384Z,12.70
2019-03-26T08:33:01.557Z,13.00
2019-03-26T08:35:30.888Z,13.10
2019-03-26T08:38:11.827Z,13.20
2019-03-26T08:40:31.033Z,13.10
2019-03-26T08:43:00.056Z,13.30
2019-03-26T08:45:29.393Z,13.50
2019-03-26T08:47:58.713Z,13.50
2019-03-26T08:50:27.943Z,13.30
2019-03-26T08:52:57.114Z,13.50
2019-03-26T08:55:26.975Z,13.70
2019-03-26T08:57:56.244Z,13.20
2019-03-26T09:00:25.697Z,13.50
2019-03-26T09:02:54.975Z,13.30
2019-03-26T09:05:24.118Z,13.70
2019-03-26T09:07:53.293Z,13.90
2019-03-26T09:10:23.511Z,13.90
2019-03-26T09:12:52.897Z,13.90
2019-03-26T09:15:22.434Z,13.80
2019-03-26T09:17:51.636Z,13.90
2019-03-26T09:20:20.918Z,14.00
2019-03-26T09:22:50.021Z,14.10
2019-03-26T09:25:19.355Z,14.20
2019-03-26T09:27:48.278Z,14.50
2019-03-26T09:30:17.725Z,14.50
2019-03-26T09:32:46.918Z,14.50
2019-03-26T09:35:17.664Z,14.40
2019-03-26T09:37:46.940Z,14.50
2019-03-26T09:40:17.312Z,14.50
2019-03-26T09:42:46.487Z,14.50
2019-03-26T09:45:15.901Z,14.50
2019-03-26T09:47:44.946Z,14.80
2019-03-26T09:50:14.331Z,14.50
2019-03-26T09:52:43.527Z,14.70
2019-03-26T09:55:13.004Z,14.90
2019-03-26T09:57:42.045Z,14.70
2019-03-26T10:00:11.610Z,14.70
2019-03-26T10:02:42.975Z,15.00
2019-03-26T10:05:12.168Z,15.20
2019-03-26T10:07:41.364Z,15.30
2019-03-26T10:10:11.388Z,15.50
2019-03-26T10:12:40.890Z,15.50
2019-03-26T10:15:10.624Z,15.80
2019-03-26T10:17:39.850Z,16.00
2019-03-26T10:20:09.345Z,15.90
2019-03-26T10:22:38.806Z,15.90
2019-03-26T10:25:10.962Z,15.90
2019-03-26T10:27:40.522Z,16.00
2019-03-26T10:30:10.845Z,16.00
2019-03-26T10:32:40.196Z,16.10
2019-03-26T10:35:09.655Z,16.10
2019-03-26T10:37:38.866Z,15.70
2019-03-26T10:40:08.843Z,16.00
2019-03-26T10:42:37.898Z,16.30
2019-03-26T10:45:13.526Z,16.50
2019-03-26T10:47:42.905Z,16.60
2019-03-26T10:50:12.159Z,16.60
2019-03-26T10:52:42.326Z,16.70
2019-03-26T10:55:11.452Z,16.90
2019-03-26T10:57:40.549Z,16.90
2019-03-26T11:00:09.878Z,16.80
2019-03-26T11:02:39.120Z,17.00
2019-03-26T11:05:08.752Z,17.00
2019-03-26T11:07:38.093Z,17.00
2019-03-26T11:10:07.918Z,17.20
2019-03-26T11:12:37.241Z,17.40
2019-03-26T11:15:06.900Z,17.50
2019-03-26T11:17:36.244Z,17.30
2019-03-26T11:20:07.592Z,17.50
2019-03-26T11:22:37.407Z,17.50
2019-03-26T11:25:07.391Z,17.50
2019-03-26T11:27:36.749Z,17.50
2019-03-26T11:30:07.340Z,17.70
2019-03-26T11:32:36.748Z,17.80
2019-03-26T11:35:06.015Z,18.10
2019-03-26T11:37:35.180Z,17.80
2019-03-26T11:40:04.640Z,17.60
2019-03-26T11:42:33.910Z,17.70
2019-03-26T11:45:04.065Z,18.20
2019-03-26T11:47:33.283Z,18.40
2019-03-26T11:50:04.801Z,18.50
2019-03-26T11:52:33.555Z,18.30
2019-03-26T11:55:02.912Z,19.00
2019-03-26T11:57:32.138Z,18.90
2019-03-26T12:00:01.441Z,19.30
2019-03-26T12:02:30.499Z,18.90
2019-03-26T12:05:00.009Z,19.30
2019-03-26T12:07:29.212Z,19.50
2019-03-26T12:09:58.484Z,19.40
2019-03-26T12:12:27.844Z,19.30
2019-03-26T12:14:57.483Z,19.50
2019-03-26T12:17:26.694Z,19.40
2019-03-26T12:19:55.851Z,19.40
2019-03-26T12:22:25.003Z,20.00
2019-03-26T12:24:54.795Z,20.00
2019-03-26T12:27:24.434Z,19.30
2019-03-26T12:29:53.697Z,19.50
2019-03-26T12:32:23.481Z,19.60
2019-03-26T12:34:52.723Z,19.90
2019-03-26T12:37:22.144Z,19.60
2019-03-26T12:39:59.304Z,19.80
2019-03-26T12:42:22.404Z,19.60
2019-03-26T12:44:51.414Z,19.80
2019-03-26T12:47:20.732Z,20.40
2019-03-26T12:49:49.956Z,19.60
2019-03-26T12:52:19.322Z,20.20
2019-03-26T12:54:48.675Z,19.60
2019-03-26T12:57:22.032Z,19.70
2019-03-26T12:59:51.066Z,19.20
2019-03-26T13:02:21.326Z,20.40
2019-03-26T13:04:57.061Z,20.10
2019-03-26T13:07:27.437Z,19.00
2019-03-26T13:09:56.763Z,19.20
2019-03-26T13:12:26.141Z,20.00
2019-03-26T13:14:59.431Z,21.00
2019-03-26T13:17:28.341Z,21.10
2019-03-26T13:19:57.484Z,20.50
2019-03-26T13:22:26.888Z,21.50
2019-03-26T13:24:56.181Z,21.60
2019-03-26T13:27:25.379Z,20.50
2019-03-26T13:29:54.765Z,20.80
2019-03-26T13:32:23.959Z,20.10
2019-03-26T13:34:53.257Z,20.60
2019-03-26T13:37:23.662Z,20.80
2019-03-26T13:39:53.829Z,18.50
2019-03-26T13:42:24.138Z,17.90
2019-03-26T13:44:55.135Z,18.00
2019-03-26T13:47:24.569Z,17.40
2019-03-26T13:49:53.744Z,18.00
2019-03-26T13:52:22.857Z,18.20
2019-03-26T13:54:54.059Z,17.70
2019-03-26T13:57:23.133Z,18.40
2019-03-26T13:59:52.507Z,18.10
2019-03-26T14:02:21.959Z,18.30
2019-03-26T14:04:51.179Z,17.70
2019-03-26T14:07:20.342Z,17.40
2019-03-26T14:09:49.675Z,17.60
2019-03-26T14:12:18.944Z,17.90
2019-03-26T14:14:48.621Z,19.30
2019-03-26T14:17:19.887Z,19.20
2019-03-26T14:19:49.151Z,17.80
2019-03-26T14:22:18.499Z,18.20
2019-03-26T14:24:47.690Z,18.70
2019-03-26T14:28:24.917Z,18.70
2019-03-26T14:31:56.963Z,18.10
2019-03-26T14:35:37.131Z,18.90
2019-03-26T14:38:59.618Z,18.20
2019-03-26T14:42:02.893Z,18.10
2019-03-26T14:45:14.089Z,18.50
2019-03-26T14:48:32.167Z,19.60
2019-03-26T14:52:11.460Z,20.10
2019-03-26T14:55:37.079Z,19.90
2019-03-26T14:59:16.499Z,18.70
2019-03-26T15:02:47.542Z,20.20
2019-03-26T15:05:56.139Z,19.70
2019-03-26T15:08:53.991Z,20.30
2019-03-26T15:12:29.959Z,20.50
2019-03-26T15:16:05.199Z,20.90
2019-03-26T15:19:46.396Z,21.00
2019-03-26T15:22:47.799Z,19.00
2019-03-26T15:25:17.963Z,18.80
2019-03-26T15:27:48.026Z,17.90
2019-03-26T15:30:17.522Z,17.90
2019-03-26T15:32:46.570Z,18.10
2019-03-26T15:35:15.941Z,18.60
2019-03-26T15:37:45.106Z,17.30
2019-03-26T15:40:14.692Z,18.30
2019-03-26T15:42:43.811Z,19.40
2019-03-26T15:45:14.294Z,18.60
2019-03-26T15:47:43.560Z,18.60
2019-03-26T15:50:16.991Z,18.90
2019-03-26T15:52:46.295Z,19.50
2019-03-26T15:55:15.508Z,18.80
2019-03-26T15:57:44.676Z,17.80
2019-03-26T16:00:18.785Z,18.00
2019-03-26T16:02:48.034Z,17.60
2019-03-26T16:05:17.278Z,18.40
2019-03-26T16:07:46.485Z,17.80
2019-03-26T16:10:15.766Z,18.00
2019-03-26T16:12:45.010Z,18.30
2019-03-26T16:15:14.400Z,18.40
2019-03-26T16:17:43.509Z,18.00
2019-03-26T16:20:12.931Z,18.50
2019-03-26T16:22:49.080Z,17.90
2019-03-26T16:25:18.956Z,18.40
2019-03-26T16:27:50.714Z,18.40
2019-03-26T16:30:20.508Z,18.00
2019-03-26T16:32:49.941Z,18.00
2019-03-26T16:35:19.396Z,17.90
2019-03-26T16:37:48.734Z,17.50
2019-03-26T16:40:17.925Z,17.70
2019-03-26T16:42:47.186Z,17.10
2019-03-26T16:45:16.555Z,17.30
2019-03-26T16:47:45.777Z,17.10
2019-03-26T16:50:15.209Z,16.60
2019-03-26T16:52:44.474Z,16.80
2019-03-26T16:55:14.835Z,17.60
2019-03-26T16:57:44.359Z,17.90
2019-03-26T17:00:14.615Z,17.30
2019-03-26T17:02:43.961Z,16.40
2019-03-26T17:05:14.050Z,15.70
2019-03-26T17:07:43.112Z,15.80
2019-03-26T17:10:12.482Z,15.40
2019-03-26T17:12:42.660Z,15.00
2019-03-26T17:15:12.241Z,14.60
2019-03-26T17:17:41.348Z,14.30
2019-03-26T17:20:10.951Z,14.20
2019-03-26T17:22:40.125Z,13.90
2019-03-26T17:25:09.508Z,13.90
2019-03-26T17:27:44.536Z,13.90
2019-03-26T17:30:14.151Z,14.00
2019-03-26T17:32:43.350Z,14.20
2019-03-26T17:35:12.796Z,14.50
2019-03-26T17:37:41.960Z,14.60
2019-03-26T17:40:11.693Z,14.50
2019-03-26T17:42:41.103Z,14.00
2019-03-26T17:45:10.456Z,13.80
2019-03-26T17:47:39.763Z,13.70
2019-03-26T17:50:09.369Z,13.80
2019-03-26T17:52:38.589Z,14.00
2019-03-26T17:55:08.202Z,14.00
2019-03-26T17:57:37.394Z,13.80
2019-03-26T18:00:10.113Z,13.50
2019-03-26T18:02:39.519Z,13.60
2019-03-26T18:05:24.422Z,13.90
2019-03-26T18:07:53.718Z,14.00
2019-03-26T18:10:23.247Z,13.90
2019-03-26T18:12:52.414Z,14.00
2019-03-26T18:15:21.854Z,14.20
2019-03-26T18:17:51.258Z,14.20
2019-03-26T18:20:32.033Z,14.00
2019-03-26T18:22:52.876Z,13.90
2019-03-26T18:25:22.554Z,14.00
2019-03-26T18:27:51.875Z,13.50
2019-03-26T18:30:22.309Z,13.40
2019-03-26T18:32:51.629Z,12.90
2019-03-26T18:35:22.205Z,12.70
2019-03-26T18:37:51.542Z,12.70
2019-03-26T18:40:20.876Z,13.00
2019-03-26T18:42:50.736Z,13.00
2019-03-26T18:45:20.033Z,13.10
2019-03-26T18:47:49.370Z,13.10
2019-03-26T18:50:19.212Z,13.30
2019-03-26T18:52:48.942Z,13.40
2019-03-26T18:55:18.359Z,13.40
2019-03-26T18:57:47.539Z,13.20
2019-03-26T19:00:31.907Z,13.10
2019-03-26T19:03:01.126Z,13.10
2019-03-26T19:05:31.472Z,12.90
2019-03-26T19:08:02.670Z,12.70
2019-03-26T19:10:52.726Z,12.70
2019-03-26T19:13:22.155Z,13.00
2019-03-26T19:15:51.570Z,12.60
2019-03-26T19:18:20.863Z,12.30
2019-03-26T19:21:01.476Z,11.90
2019-03-26T19:23:20.928Z,11.80
2019-03-26T19:25:50.512Z,11.90
2019-03-26T19:28:19.623Z,11.90
2019-03-26T19:30:48.979Z,11.90
2019-03-26T19:33:18.739Z,12.20
2019-03-26T19:35:48.155Z,12.10
2019-03-26T19:38:18.588Z,12.00
2019-03-26T19:40:47.968Z,11.90
2019-03-26T19:43:17.050Z,12.10
2019-03-26T19:45:46.528Z,12.30
2019-03-26T19:48:16.135Z,12.10
2019-03-26T19:50:46.107Z,12.00
2019-03-26T19:53:15.725Z,11.80
2019-03-26T19:55:45.001Z,11.80
2019-03-26T19:58:14.495Z,11.80
2019-03-26T20:00:43.808Z,11.70
2019-03-26T20:03:12.909Z,11.60
2019-03-26T20:05:42.148Z,11.40
2019-03-26T20:08:12.115Z,11.50
2019-03-26T20:10:42.799Z,11.50
2019-03-26T20:13:23.797Z,12.00
2019-03-26T20:15:43.480Z,11.70
2019-03-26T20:18:12.709Z,11.50
2019-03-26T20:20:42.717Z,11.50
2019-03-26T20:23:12.281Z,11.50
2019-03-26T20:25:41.684Z,11.20
2019-03-26T20:28:10.732Z,11.00
2019-03-26T20:30:39.863Z,11.30
2019-03-26T20:33:09.461Z,11.30
2019-03-26T20:35:38.944Z,11.00
2019-03-26T20:38:08.133Z,10.90
2019-03-26T20:40:37.461Z,11.00
2019-03-26T20:43:06.953Z,10.90
2019-03-26T20:45:36.097Z,10.80
2019-03-26T20:48:05.393Z,11.00
2019-03-26T20:50:34.646Z,10.90
2019-03-26T20:53:04.780Z,11.00
2019-03-26T20:55:34.943Z,10.90
2019-03-26T20:58:04.711Z,10.80
2019-03-26T21:00:38.605Z,10.80
2019-03-26T21:03:07.935Z,10.70
2019-03-26T21:05:37.122Z,10.60
2019-03-26T21:08:06.524Z,10.60
2019-03-26T21:10:35.629Z,10.70
2019-03-26T21:13:05.224Z,10.60
2019-03-26T21:15:35.382Z,10.60
2019-03-26T21:18:05.023Z,10.90
2019-03-26T21:20:34.545Z,10.50
2019-03-26T21:23:03.785Z,10.40
2019-03-26T21:25:33.033Z,10.50
2019-03-26T21:28:02.363Z,10.40
2019-03-26T21:30:31.633Z,10.40
2019-03-26T21:33:00.747Z,10.50
2019-03-26T21:35:29.995Z,10.90
2019-03-26T21:37:59.359Z,10.90
2019-03-26T21:40:28.832Z,10.70
2019-03-26T21:42:58.504Z,10.70
2019-03-26T21:45:35.570Z,10.90
2019-03-26T21:48:05.797Z,10.70
2019-03-26T21:50:38.796Z,11.00
2019-03-26T21:53:08.157Z,10.40
2019-03-26T21:55:37.435Z,10.80
2019-03-26T21:58:06.609Z,10.70
2019-03-26T22:00:35.927Z,10.80
2019-03-26T22:03:05.180Z,10.40
2019-03-26T22:05:34.556Z,10.60
2019-03-26T22:08:03.987Z,10.70
2019-03-26T22:10:33.279Z,10.80
2019-03-26T22:13:02.534Z,10.60
2019-03-26T22:15:31.697Z,10.80
2019-03-26T22:18:01.012Z,10.90
2019-03-26T22:20:31.332Z,10.70
2019-03-26T22:23:01.801Z,10.70
2019-03-26T22:25:31.405Z,10.80
2019-03-26T22:28:00.702Z,10.30
2019-03-26T22:30:30.197Z,10.20
2019-03-26T22:32:59.374Z,10.30
2019-03-26T22:35:28.516Z,10.40
2019-03-26T22:37:57.728Z,10.40
2019-03-26T22:40:26.865Z,10.30
2019-03-26T22:42:56.207Z,10.10
2019-03-26T22:45:25.636Z,10.00
2019-03-26T22:47:55.011Z,10.20
2019-03-26T22:50:24.436Z,10.30
2019-03-26T22:52:53.719Z,10.50
2019-03-26T22:55:22.704Z,10.40
2019-03-26T22:57:51.824Z,10.50
2019-03-26T23:00:21.524Z,10.60
2019-03-26T23:02:52.698Z,10.50
2019-03-26T23:05:22.175Z,10.30
2019-03-26T23:08:52.311Z,10.10
2019-03-26T23:11:23.460Z,9.90
2019-03-26T23:13:52.718Z,9.90
2019-03-26T23:16:22.043Z,9.80
2019-03-26T23:18:51.325Z,9.70
2019-03-26T23:21:20.916Z,9.80
2019-03-26T23:23:50.185Z,9.70
2019-03-26T23:26:19.638Z,9.60
2019-03-26T23:28:48.747Z,9.60
2019-03-26T23:31:17.899Z,9.60
2019-03-26T23:33:58.607Z,9.70
2019-03-26T23:36:27.804Z,8.90
2019-03-26T23:38:57.282Z,9.60
2019-03-26T23:41:26.331Z,9.70
2019-03-26T23:43:55.477Z,9.60
2019-03-26T23:46:24.542Z,9.30
2019-03-26T23:48:53.769Z,9.30
2019-03-26T23:51:23.043Z,9.10
2019-03-26T23:53:53.318Z,9.30
2019-03-26T23:56:22.424Z,9.10
2019-03-26T23:58:51.582Z,9.40
